Time;durP1;ratioP1;P1;durP2;ratioP2;P2;SDS_P1;SDS_P2;PMS_P1;PMS_P2;Temp;Humidity;BMP_temperature;BMP_pressure;BME280_temperature;BME280_humidity;BME280_pressure;Samples;Min_cycle;Max_cycle;Signal;HPM_P1;HPM_P2
2024/02/26 00:00:32;;;;;;;3.03;2.63;;;11.70;90.50;;;;;;5011714;28;20184;-68
2024/02/26 00:02:57;;;;;;;2.90;2.37;;;11.70;90.50;;;;;;5016602;28;20213;-68
2024/02/26 00:05:23;;;;;;;4.50;2.47;;;11.70;90.50;;;;;;5019840;28;20204;-68
2024/02/26 00:07:49;;;;;;;4.13;3.33;;;11.70;90.40;;;;;;5014794;28;20216;-68
2024/02/26 00:10:14;;;;;;;3.60;2.40;;;11.70;90.40;;;;;;5016997;28;20234;-68
2024/02/26 00:12:40;;;;;;;3.30;2.43;;;11.70;90.40;;;;;;5019445;28;20651;-68
2024/02/26 00:15:07;;;;;;;3.60;2.37;;;11.70;90.30;;;;;;5012260;28;20377;-68
2024/02/26 00:17:32;;;;;;;2.57;2.33;;;11.80;90.30;;;;;;5016972;28;20922;-68
2024/02/26 00:19:58;;;;;;;3.23;2.50;;;11.80;90.40;;;;;;5016830;28;20476;-68
2024/02/26 00:22:23;;;;;;;4.50;2.70;;;11.80;90.30;;;;;;5012225;28;20472;-68
2024/02/26 00:24:49;;;;;;;3.53;2.20;;;11.80;90.30;;;;;;5009829;28;20574;-68
2024/02/26 00:27:15;;;;;;;2.80;2.40;;;11.80;90.40;;;;;;5017310;28;20256;-67
2024/02/26 00:29:40;;;;;;;3.03;2.30;;;11.80;90.30;;;;;;5018749;28;20176;-67
2024/02/26 00:32:06;;;;;;;4.10;2.40;;;11.80;90.50;;;;;;5020390;28;20207;-68
2024/02/26 00:34:32;;;;;;;5.00;2.50;;;11.80;90.50;;;;;;5015394;28;20663;-68
2024/02/26 00:36:57;;;;;;;4.17;2.60;;;11.80;90.60;;;;;;5016107;28;20180;-68
2024/02/26 00:39:23;;;;;;;2.87;2.13;;;11.80;90.70;;;;;;5014118;28;20805;-68
2024/02/26 00:41:48;;;;;;;3.10;2.40;;;11.80;90.70;;;;;;5014305;28;20209;-68
2024/02/26 00:44:14;;;;;;;3.43;2.57;;;11.80;90.90;;;;;;5021088;28;20201;-68
2024/02/26 00:46:40;;;;;;;2.80;2.40;;;11.80;90.90;;;;;;5015090;28;20268;-68
2024/02/26 00:49:05;;;;;;;3.57;2.20;;;11.80;90.90;;;;;;5013874;28;20193;-68
2024/02/26 00:51:31;;;;;;;2.87;2.37;;;11.80;91.10;;;;;;5009385;28;21342;-67
2024/02/26 00:53:57;;;;;;;2.73;2.20;;;11.80;91.00;;;;;;5013191;28;20212;-68
2024/02/26 00:56:22;;;;;;;3.00;2.20;;;11.80;91.10;;;;;;5016587;28;20181;-68
2024/02/26 00:58:48;;;;;;;3.17;2.23;;;11.80;91.20;;;;;;5011449;28;20181;-68
2024/02/26 01:01:13;;;;;;;3.40;2.27;;;11.80;91.90;;;;;;5018016;28;20188;-67
2024/02/26 01:03:39;;;;;;;2.93;2.53;;;11.80;91.90;;;;;;5013341;28;20208;-67
2024/02/26 01:06:04;;;;;;;3.20;2.37;;;11.80;92.00;;;;;;5014016;28;20543;-67
2024/02/26 01:08:31;;;;;;;3.63;2.37;;;11.80;92.10;;;;;;5018706;28;20223;-67
2024/02/26 01:10:57;;;;;;;3.83;2.30;;;11.80;92.20;;;;;;5015934;28;20181;-67
2024/02/26 01:13:22;;;;;;;2.73;2.10;;;11.80;92.30;;;;;;5017178;28;20444;-68
2024/02/26 01:15:48;;;;;;;3.07;2.37;;;11.80;92.90;;;;;;5015378;28;20231;-68
2024/02/26 01:18:14;;;;;;;2.67;2.30;;;11.80;93.00;;;;;;5019332;28;20207;-67
2024/02/26 01:20:39;;;;;;;2.90;2.40;;;11.80;92.90;;;;;;5020199;28;20644;-68
2024/02/26 01:23:05;;;;;;;5.00;2.50;;;11.80;93.00;;;;;;5021591;28;20212;-68
2024/02/26 01:25:31;;;;;;;3.47;2.70;;;11.80;93.30;;;;;;5022488;28;20200;-68
2024/02/26 01:27:56;;;;;;;4.17;2.50;;;11.80;93.20;;;;;;5022368;28;20561;-67
2024/02/26 01:30:22;;;;;;;2.77;2.10;;;11.80;93.30;;;;;;5017012;28;20185;-68
2024/02/26 01:32:48;;;;;;;3.40;2.50;;;11.80;93.20;;;;;;5019385;28;20176;-68
2024/02/26 01:35:13;;;;;;;2.73;2.27;;;11.80;93.20;;;;;;5016724;28;20240;-68
2024/02/26 01:37:39;;;;;;;3.93;2.50;;;11.70;93.30;;;;;;5019686;28;20192;-68
2024/02/26 01:40:06;;;;;;;3.47;2.50;;;11.70;93.20;;;;;;5020339;28;20651;-68
2024/02/26 01:42:32;;;;;;;3.03;2.43;;;11.70;93.30;;;;;;5021788;28;20197;-68
2024/02/26 01:44:58;;;;;;;3.33;2.50;;;11.70;93.50;;;;;;5023363;28;20443;-70
2024/02/26 01:47:25;;;;;;;2.73;2.10;;;11.70;93.50;;;;;;5018958;28;20238;-69
2024/02/26 01:49:50;;;;;;;2.80;2.40;;;11.70;93.60;;;;;;5018552;28;20518;-68
2024/02/26 01:52:17;;;;;;;4.00;2.50;;;11.70;94.10;;;;;;5023940;28;20502;-68
2024/02/26 01:54:46;;;;;;;2.77;2.07;;;11.70;94.90;;;;;;5021210;28;20232;-68
2024/02/26 01:57:13;;;;;;;3.30;2.70;;;11.70;95.10;;;;;;5017726;28;20424;-68
2024/02/26 01:59:40;;;;;;;3.33;2.40;;;11.60;94.80;;;;;;5023780;28;20423;-68
2024/02/26 02:02:09;;;;;;;2.47;2.07;;;11.60;95.10;;;;;;5022455;28;20471;-68
2024/02/26 02:04:36;;;;;;;4.80;2.30;;;11.60;95.50;;;;;;5026367;28;20467;-68
2024/02/26 02:07:02;;;;;;;2.97;1.70;;;11.60;96.10;;;;;;5017419;28;20432;-69
2024/02/26 02:09:28;;;;;;;3.83;1.97;;;11.50;97.30;;;;;;5023416;28;20434;-68
2024/02/26 02:11:54;;;;;;;3.03;2.00;;;11.50;97.80;;;;;;5021887;28;20428;-68
2024/02/26 02:14:19;;;;;;;4.10;1.70;;;11.40;98.60;;;;;;5022237;28;20208;-68
2024/02/26 02:16:46;;;;;;;2.37;1.90;;;11.30;98.90;;;;;;5015191;28;20439;-68
2024/02/26 02:19:11;;;;;;;2.40;1.80;;;11.30;99.60;;;;;;5018232;28;20209;-68
2024/02/26 02:21:37;;;;;;;3.37;1.90;;;11.30;99.90;;;;;;5019124;28;20491;-68
2024/02/26 02:24:03;;;;;;;2.57;1.80;;;11.30;99.90;;;;;;5017706;28;20273;-68
2024/02/26 02:26:28;;;;;;;2.40;1.70;;;11.30;99.90;;;;;;5021499;28;20203;-68
2024/02/26 02:28:54;;;;;;;2.30;1.70;;;11.30;99.90;;;;;;5015865;28;20329;-69
2024/02/26 02:31:19;;;;;;;3.17;1.97;;;11.30;99.90;;;;;;5022963;28;20596;-68
2024/02/26 02:33:45;;;;;;;2.70;2.20;;;11.30;99.90;;;;;;5013736;28;20212;-69
2024/02/26 02:36:11;;;;;;;3.63;1.97;;;11.30;99.90;;;;;;5018003;28;20554;-69
2024/02/26 02:38:37;;;;;;;2.43;1.70;;;11.30;99.90;;;;;;5020327;28;20547;-69
2024/02/26 02:41:03;;;;;;;2.70;1.87;;;11.30;99.90;;;;;;5012033;28;20416;-67
2024/02/26 02:43:29;;;;;;;3.90;1.90;;;11.30;99.90;;;;;;5012461;28;20466;-67
2024/02/26 02:45:54;;;;;;;2.43;1.80;;;11.30;99.90;;;;;;5014042;28;20196;-67
2024/02/26 02:48:20;;;;;;;3.10;1.90;;;11.30;99.90;;;;;;5019721;28;20729;-67
2024/02/26 02:50:45;;;;;;;2.30;1.73;;;11.20;99.90;;;;;;5017721;28;20173;-69
2024/02/26 02:53:11;;;;;;;2.77;2.10;;;11.20;99.90;;;;;;5019775;28;20185;-67
2024/02/26 02:55:36;;;;;;;2.10;1.70;;;11.20;99.90;;;;;;5018045;28;20212;-67
2024/02/26 02:58:02;;;;;;;2.57;1.70;;;11.10;99.90;;;;;;5018528;28;20272;-67
2024/02/26 03:00:28;;;;;;;3.07;2.13;;;11.10;99.90;;;;;;5013597;28;20255;-69
2024/02/26 03:02:53;;;;;;;2.60;1.53;;;11.10;99.90;;;;;;5012180;28;20208;-68
2024/02/26 03:05:19;;;;;;;2.30;1.70;;;11.00;99.90;;;;;;5017311;28;20204;-68
2024/02/26 03:07:44;;;;;;;2.20;1.70;;;11.00;99.90;;;;;;5015775;28;20620;-68
2024/02/26 03:10:10;;;;;;;3.23;2.93;;;11.00;99.90;;;;;;5014683;28;20679;-67
2024/02/26 03:12:35;;;;;;;3.47;1.70;;;10.90;99.90;;;;;;5014543;28;20181;-68
2024/02/26 03:15:02;;;;;;;4.37;1.93;;;10.90;99.90;;;;;;5013430;28;20233;-67
2024/02/26 03:17:28;;;;;;;2.37;1.60;;;10.90;99.90;;;;;;5013303;28;20288;-68
2024/02/26 03:19:54;;;;;;;2.37;1.83;;;10.90;99.90;;;;;;5009137;28;20486;-69
2024/02/26 03:22:20;;;;;;;2.60;1.87;;;10.80;99.90;;;;;;5016111;28;20459;-69
2024/02/26 03:24:46;;;;;;;2.27;1.83;;;10.80;99.90;;;;;;5015759;28;20200;-68
2024/02/26 03:27:12;;;;;;;2.00;1.70;;;10.80;99.90;;;;;;5022271;28;20673;-68
2024/02/26 03:29:38;;;;;;;3.73;1.87;;;10.70;99.90;;;;;;5013869;28;20419;-68
2024/02/26 03:32:05;;;;;;;3.27;1.60;;;10.70;99.90;;;;;;5013783;28;20753;-68
2024/02/26 03:34:31;;;;;;;2.60;1.93;;;10.70;99.90;;;;;;5014269;28;20513;-68
2024/02/26 03:36:56;;;;;;;2.20;1.60;;;10.60;99.90;;;;;;5014490;28;22662;-68
2024/02/26 03:39:22;;;;;;;2.50;1.50;;;10.60;99.90;;;;;;5016690;28;20518;-69
2024/02/26 03:41:48;;;;;;;1.93;1.50;;;10.50;99.90;;;;;;5017691;28;20204;-68
2024/02/26 03:44:14;;;;;;;2.10;1.53;;;10.50;99.90;;;;;;5014632;28;20999;-68
2024/02/26 03:46:42;;;;;;;1.80;1.20;;;10.50;99.90;;;;;;5012103;28;20799;-68
2024/02/26 03:49:08;;;;;;;3.27;1.40;;;10.50;99.90;;;;;;5013014;28;20793;-69
2024/02/26 03:51:33;;;;;;;2.30;1.57;;;10.50;99.90;;;;;;5020828;28;20510;-68
2024/02/26 03:53:59;;;;;;;2.50;1.50;;;10.50;99.90;;;;;;5013472;28;20204;-67
2024/02/26 03:56:26;;;;;;;1.90;1.50;;;10.50;99.90;;;;;;5020671;28;20180;-68
2024/02/26 03:58:51;;;;;;;2.60;1.70;;;10.40;99.90;;;;;;5017704;28;20176;-68
2024/02/26 04:01:17;;;;;;;2.00;1.53;;;10.40;99.90;;;;;;5016669;28;20415;-68
2024/02/26 04:03:43;;;;;;;2.30;1.60;;;10.40;99.90;;;;;;5021423;28;20229;-68
2024/02/26 04:06:10;;;;;;;2.13;1.30;;;10.40;99.90;;;;;;5016492;28;20204;-68
2024/02/26 04:08:36;;;;;;;1.80;1.27;;;10.40;99.90;;;;;;5015073;28;20430;-68
2024/02/26 04:11:06;;;;;;;2.50;1.70;;;10.40;99.90;;;;;;5017312;28;20427;-68
2024/02/26 04:13:35;;;;;;;2.57;1.40;;;10.40;99.90;;;;;;5017547;28;20936;-68
2024/02/26 04:16:02;;;;;;;2.60;1.60;;;10.40;99.90;;;;;;5008666;28;20925;-68
2024/02/26 04:18:28;;;;;;;2.20;1.53;;;10.40;99.90;;;;;;5019725;28;21034;-68
2024/02/26 04:20:54;;;;;;;2.83;1.50;;;10.40;99.90;;;;;;5010324;28;20427;-68
2024/02/26 04:23:19;;;;;;;2.53;1.70;;;10.40;99.90;;;;;;5015436;28;20192;-68
2024/02/26 04:25:45;;;;;;;2.10;1.43;;;10.40;99.90;;;;;;5017483;28;20830;-68
2024/02/26 04:28:11;;;;;;;2.00;1.57;;;10.40;99.90;;;;;;5016315;28;20199;-68
2024/02/26 04:30:37;;;;;;;2.20;1.33;;;10.40;99.90;;;;;;5013848;28;20256;-68
2024/02/26 04:33:02;;;;;;;2.53;1.57;;;10.40;99.90;;;;;;5018315;28;20197;-68
2024/02/26 04:35:28;;;;;;;3.93;1.60;;;10.40;99.90;;;;;;5017982;28;20432;-68
2024/02/26 04:37:53;;;;;;;3.50;1.70;;;10.30;99.90;;;;;;5023865;28;20180;-68
2024/02/26 04:40:19;;;;;;;2.73;1.70;;;10.30;99.90;;;;;;5018638;28;20264;-68
2024/02/26 04:42:45;;;;;;;3.40;1.67;;;10.20;99.90;;;;;;5012422;28;20695;-68
2024/02/26 04:45:10;;;;;;;2.37;1.57;;;10.20;99.90;;;;;;5015290;28;20196;-68
2024/02/26 04:47:36;;;;;;;2.50;1.77;;;10.20;99.90;;;;;;5021748;28;20526;-68
2024/02/26 04:50:01;;;;;;;3.90;2.80;;;10.20;99.90;;;;;;5016528;28;20181;-68
2024/02/26 04:52:27;;;;;;;2.90;1.70;;;10.30;99.90;;;;;;5011512;28;20184;-68
2024/02/26 04:54:52;;;;;;;2.77;1.60;;;10.30;99.90;;;;;;5017423;28;20219;-68
2024/02/26 04:57:18;;;;;;;2.03;1.50;;;10.20;99.90;;;;;;5017794;28;20172;-68
2024/02/26 04:59:45;;;;;;;2.30;1.67;;;10.20;99.90;;;;;;5022805;28;20189;-67
2024/02/26 05:02:11;;;;;;;2.63;1.50;;;10.20;99.90;;;;;;5015391;28;20219;-67
2024/02/26 05:04:37;;;;;;;3.00;1.83;;;10.20;99.90;;;;;;5022859;28;21004;-68
2024/02/26 05:07:03;;;;;;;5.70;2.40;;;10.30;99.90;;;;;;5021320;28;21045;-68
2024/02/26 05:09:29;;;;;;;2.80;1.70;;;10.30;99.90;;;;;;5022805;28;20177;-68
2024/02/26 05:11:54;;;;;;;2.20;1.80;;;10.30;99.90;;;;;;5018529;28;20873;-68
2024/02/26 05:14:20;;;;;;;2.90;1.67;;;10.30;99.90;;;;;;5016561;28;20686;-68
2024/02/26 05:16:46;;;;;;;2.20;1.50;;;10.30;99.90;;;;;;5020216;28;20701;-68
2024/02/26 05:19:11;;;;;;;2.30;1.60;;;10.30;99.90;;;;;;5019516;28;20188;-68
2024/02/26 05:21:37;;;;;;;1.90;1.50;;;10.30;99.90;;;;;;5018929;28;20208;-68
2024/02/26 05:24:02;;;;;;;2.63;1.50;;;10.30;99.90;;;;;;5014291;28;20304;-68
2024/02/26 05:26:28;;;;;;;2.60;1.40;;;10.30;99.90;;;;;;5022152;28;20849;-69
2024/02/26 05:28:59;;;;;;;4.00;1.43;;;10.30;99.90;;;;;;5015297;28;20193;-68
2024/02/26 05:31:25;;;;;;;2.27;1.67;;;10.30;99.90;;;;;;5017575;28;20162;-67
2024/02/26 05:33:51;;;;;;;2.50;1.70;;;10.30;99.90;;;;;;5017361;28;20539;-68
2024/02/26 05:36:22;;;;;;;2.37;1.60;;;10.40;99.90;;;;;;5017855;28;20506;-68
2024/02/26 05:38:48;;;;;;;3.50;1.70;;;10.40;99.90;;;;;;5014057;28;20410;-69
2024/02/26 05:41:15;;;;;;;2.40;1.80;;;10.40;99.90;;;;;;5009647;28;20413;-68
2024/02/26 05:43:41;;;;;;;2.30;1.60;;;10.40;99.90;;;;;;5015703;28;20431;-69
2024/02/26 05:46:06;;;;;;;2.20;1.63;;;10.40;99.90;;;;;;5011717;28;20439;-69
2024/02/26 05:48:32;;;;;;;2.37;1.50;;;10.40;99.90;;;;;;5016197;28;20199;-68
2024/02/26 05:50:58;;;;;;;2.20;1.63;;;10.50;99.90;;;;;;5017478;28;20264;-68
2024/02/26 05:53:23;;;;;;;3.20;1.50;;;10.50;99.90;;;;;;5011592;28;20189;-67
2024/02/26 05:55:49;;;;;;;2.27;1.60;;;10.50;99.90;;;;;;5016908;28;20177;-67
2024/02/26 05:58:14;;;;;;;2.57;1.60;;;10.50;99.90;;;;;;5012338;28;20646;-68
2024/02/26 06:00:40;;;;;;;3.20;1.90;;;10.50;99.90;;;;;;5021182;28;20173;-68
2024/02/26 06:03:06;;;;;;;2.00;1.50;;;10.60;99.90;;;;;;5019148;28;20205;-68
2024/02/26 06:05:31;;;;;;;3.40;2.30;;;10.60;99.90;;;;;;5012711;28;20630;-68
2024/02/26 06:07:57;;;;;;;2.83;1.87;;;10.60;99.90;;;;;;5021744;28;20176;-68
2024/02/26 06:10:22;;;;;;;3.17;1.80;;;10.60;99.90;;;;;;5014636;28;20181;-69
2024/02/26 06:12:48;;;;;;;2.43;2.00;;;10.60;99.90;;;;;;5013697;28;20562;-68
2024/02/26 06:15:14;;;;;;;3.30;2.30;;;10.60;99.90;;;;;;5021283;28;20295;-68
2024/02/26 06:17:39;;;;;;;3.50;2.20;;;10.70;99.90;;;;;;5022472;28;20181;-68
2024/02/26 06:20:06;;;;;;;2.70;2.00;;;10.70;99.90;;;;;;5020309;28;20195;-68
2024/02/26 06:22:32;;;;;;;2.90;2.07;;;10.70;99.90;;;;;;5015831;28;20766;-68
2024/02/26 06:24:58;;;;;;;2.43;1.73;;;10.70;99.90;;;;;;5015242;28;20451;-68
2024/02/26 06:27:24;;;;;;;2.73;1.90;;;10.70;99.90;;;;;;5018044;28;20694;-68
2024/02/26 06:29:50;;;;;;;2.57;1.57;;;10.70;99.90;;;;;;5011134;28;20436;-68
2024/02/26 06:32:15;;;;;;;2.77;1.77;;;10.80;99.90;;;;;;5014407;28;20494;-68
2024/02/26 06:34:41;;;;;;;2.27;1.80;;;10.80;99.90;;;;;;5017147;28;20534;-68
2024/02/26 06:37:08;;;;;;;2.10;1.77;;;10.80;99.90;;;;;;5009490;28;20181;-68
2024/02/26 06:39:34;;;;;;;2.33;1.60;;;10.80;99.90;;;;;;5015629;28;20208;-68
2024/02/26 06:42:36;;;;;;;7.80;1.87;;;10.80;99.90;;;;;;5015499;28;20491;-67
2024/02/26 06:45:04;;;;;;;4.60;3.50;;;10.90;99.90;;;;;;5013003;28;20211;-67
2024/02/26 06:47:29;;;;;;;3.50;2.07;;;10.90;99.90;;;;;;5022614;28;20412;-67
2024/02/26 06:49:57;;;;;;;4.47;2.40;;;10.90;99.90;;;;;;5016926;28;20470;-67
2024/02/26 06:52:24;;;;;;;3.40;2.30;;;11.00;99.90;;;;;;5015182;28;20208;-67
2024/02/26 06:54:52;;;;;;;2.73;1.73;;;11.00;99.90;;;;;;5015838;28;20993;-67
2024/02/26 06:57:21;;;;;;;2.73;2.00;;;11.00;99.90;;;;;;5017703;28;20412;-68
2024/02/26 06:59:47;;;;;;;3.37;2.10;;;11.00;99.90;;;;;;5015701;28;20435;-67
2024/02/26 07:02:16;;;;;;;5.30;2.80;;;11.00;99.90;;;;;;5013344;28;20459;-67
2024/02/26 07:04:42;;;;;;;3.30;2.50;;;11.00;99.90;;;;;;5016780;28;20474;-68
2024/02/26 07:07:08;;;;;;;3.30;2.50;;;11.00;99.90;;;;;;5012541;28;20470;-68
2024/02/26 07:09:34;;;;;;;3.80;2.80;;;11.10;99.90;;;;;;5021750;28;20177;-67
2024/02/26 07:11:59;;;;;;;3.60;3.17;;;11.10;99.90;;;;;;5017559;28;20804;-67
2024/02/26 07:14:25;;;;;;;3.00;2.23;;;11.10;99.90;;;;;;5018492;28;20224;-68
2024/02/26 07:16:51;;;;;;;3.10;2.57;;;11.10;99.90;;;;;;5018018;28;20216;-67
2024/02/26 07:19:16;;;;;;;2.50;2.03;;;11.10;99.90;;;;;;5021089;28;20192;-68
2024/02/26 07:21:42;;;;;;;3.73;2.53;;;11.10;99.90;;;;;;5016074;28;20455;-67
2024/02/26 07:24:08;;;;;;;4.80;3.17;;;11.10;99.90;;;;;;5012229;28;20198;-68
2024/02/26 07:26:34;;;;;;;3.83;2.47;;;11.10;99.90;;;;;;5018364;28;20567;-67
2024/02/26 07:29:00;;;;;;;4.37;2.37;;;11.10;99.90;;;;;;5014243;28;20408;-67
2024/02/26 07:31:25;;;;;;;3.77;2.00;;;11.10;99.90;;;;;;5022118;28;20173;-67
2024/02/26 07:33:51;;;;;;;3.70;2.20;;;11.10;99.90;;;;;;5014454;28;20206;-68
2024/02/26 07:36:17;;;;;;;3.70;2.13;;;11.10;99.90;;;;;;5014213;28;20173;-68
2024/02/26 07:38:42;;;;;;;3.90;1.70;;;11.20;99.90;;;;;;5019781;28;20178;-68
2024/02/26 07:41:09;;;;;;;2.47;1.97;;;11.20;99.90;;;;;;5016316;28;20177;-68
2024/02/26 07:43:34;;;;;;;4.50;2.20;;;11.20;99.90;;;;;;5010117;28;20240;-68
2024/02/26 07:46:00;;;;;;;2.50;2.03;;;11.20;99.90;;;;;;5014719;28;20660;-68
2024/02/26 07:48:26;;;;;;;2.80;2.07;;;11.30;99.90;;;;;;5010811;28;20216;-68
2024/02/26 07:50:51;;;;;;;3.60;2.27;;;11.30;99.90;;;;;;5008832;28;20176;-68
2024/02/26 07:53:17;;;;;;;4.73;2.30;;;11.30;99.90;;;;;;5011764;28;20272;-68
2024/02/26 07:55:42;;;;;;;2.70;2.30;;;11.30;99.90;;;;;;5007808;28;20192;-68
2024/02/26 07:58:08;;;;;;;5.50;2.00;;;11.30;99.90;;;;;;5016399;28;20176;-68
2024/02/26 08:00:34;;;;;;;2.50;2.00;;;11.30;99.90;;;;;;5013050;28;20790;-68
2024/02/26 08:02:59;;;;;;;3.47;2.20;;;11.30;99.90;;;;;;5011545;28;20243;-68
2024/02/26 08:05:25;;;;;;;4.43;2.10;;;11.30;99.90;;;;;;5008051;28;20200;-68
2024/02/26 08:07:50;;;;;;;3.43;2.50;;;11.30;99.90;;;;;;5015337;28;20188;-68
2024/02/26 08:10:16;;;;;;;2.60;2.00;;;11.30;99.90;;;;;;5018397;28;20184;-68
2024/02/26 08:12:42;;;;;;;3.13;2.07;;;11.30;99.90;;;;;;5012722;28;20207;-68
2024/02/26 08:15:08;;;;;;;4.63;2.33;;;11.30;99.90;;;;;;5015709;28;20686;-68
2024/02/26 08:17:34;;;;;;;2.50;2.03;;;11.30;99.90;;;;;;5013934;28;20252;-68
2024/02/26 08:20:00;;;;;;;4.77;2.50;;;11.30;99.90;;;;;;5019206;28;20937;-68
2024/02/26 08:22:26;;;;;;;4.00;2.73;;;11.40;99.90;;;;;;5011788;28;20201;-68
2024/02/26 08:24:51;;;;;;;3.00;2.13;;;11.40;99.90;;;;;;5010222;28;20451;-68
2024/02/26 08:27:17;;;;;;;3.80;2.33;;;11.50;99.90;;;;;;5010264;28;20185;-68
2024/02/26 08:29:43;;;;;;;3.50;2.87;;;11.50;99.90;;;;;;5014328;28;20177;-68
2024/02/26 08:32:08;;;;;;;3.30;2.37;;;11.60;99.90;;;;;;5012551;28;20185;-68
2024/02/26 08:34:34;;;;;;;2.83;2.13;;;11.70;99.90;;;;;;5018664;28;20254;-68
2024/02/26 08:37:00;;;;;;;2.50;1.90;;;11.80;99.90;;;;;;5016595;28;20203;-69
2024/02/26 08:39:26;;;;;;;4.13;2.30;;;11.90;99.90;;;;;;5015491;28;20667;-68
2024/02/26 08:41:51;;;;;;;3.70;2.03;;;11.90;99.90;;;;;;5024885;28;20200;-68
2024/02/26 08:44:17;;;;;;;2.90;2.20;;;12.00;99.90;;;;;;5013152;28;20218;-68
2024/02/26 08:46:42;;;;;;;4.50;2.53;;;12.00;99.90;;;;;;5017867;28;20177;-68
2024/02/26 08:49:08;;;;;;;2.70;2.00;;;12.10;99.90;;;;;;5010878;28;20662;-68
2024/02/26 08:51:34;;;;;;;3.30;2.73;;;12.10;99.90;;;;;;5011919;28;20189;-68
2024/02/26 08:53:59;;;;;;;3.00;2.40;;;12.20;99.90;;;;;;5023096;28;20203;-68
2024/02/26 08:56:25;;;;;;;4.03;2.70;;;12.20;99.90;;;;;;5016522;28;20256;-68
2024/02/26 08:58:53;;;;;;;3.23;2.20;;;12.30;99.90;;;;;;5014652;28;20187;-68
2024/02/26 09:01:19;;;;;;;5.13;2.40;;;12.30;99.90;;;;;;5019061;28;20192;-68
2024/02/26 09:03:45;;;;;;;4.73;2.40;;;12.40;99.90;;;;;;5015770;28;20444;-68
2024/02/26 09:06:11;;;;;;;3.27;2.07;;;12.40;99.90;;;;;;5020954;28;20539;-68
2024/02/26 09:08:37;;;;;;;3.43;2.07;;;12.50;99.90;;;;;;5032722;28;20243;-68
2024/02/26 09:11:03;;;;;;;3.83;2.23;;;12.60;99.90;;;;;;5023917;28;20988;-68
2024/02/26 09:13:29;;;;;;;2.80;1.90;;;12.70;99.90;;;;;;5022324;28;20211;-67
2024/02/26 09:15:55;;;;;;;3.73;1.97;;;12.80;99.90;;;;;;5023001;28;20196;-68
2024/02/26 09:18:20;;;;;;;3.03;2.03;;;12.90;99.90;;;;;;5022931;28;20960;-68
2024/02/26 09:20:46;;;;;;;4.00;2.27;;;13.00;99.90;;;;;;5016702;28;20192;-67
2024/02/26 09:23:12;;;;;;;3.23;2.23;;;13.10;99.90;;;;;;5016252;28;20207;-68
2024/02/26 09:25:37;;;;;;;3.07;2.20;;;13.20;99.90;;;;;;5020310;28;20217;-67
2024/02/26 09:28:03;;;;;;;3.33;2.03;;;13.30;99.90;;;;;;5014284;28;20181;-68
2024/02/26 09:30:29;;;;;;;6.70;2.93;;;13.30;99.90;;;;;;5015183;28;20223;-67
2024/02/26 09:32:54;;;;;;;4.30;3.20;;;13.40;99.90;;;;;;5012893;28;20440;-68
2024/02/26 09:35:21;;;;;;;3.60;2.60;;;13.40;99.90;;;;;;5018805;28;20732;-67
2024/02/26 09:37:48;;;;;;;3.67;2.70;;;13.50;99.90;;;;;;5020430;28;20188;-67
2024/02/26 09:40:14;;;;;;;4.97;2.20;;;13.40;99.90;;;;;;5022765;28;20691;-68
2024/02/26 09:42:44;;;;;;;3.83;2.37;;;13.50;99.90;;;;;;5022147;28;20535;-68
2024/02/26 09:45:17;;;;;;;3.40;2.10;;;13.50;99.90;;;;;;5018711;28;20431;-68
2024/02/26 09:47:42;;;;;;;4.23;2.10;;;13.50;99.90;;;;;;5024724;28;20443;-68
2024/02/26 09:50:09;;;;;;;2.90;2.13;;;13.60;99.90;;;;;;5009780;28;20459;-67
2024/02/26 09:52:38;;;;;;;3.27;1.83;;;13.70;99.90;;;;;;5017746;28;20181;-67
2024/02/26 09:55:04;;;;;;;3.50;2.20;;;13.70;99.90;;;;;;5014334;28;20813;-67
2024/02/26 09:57:31;;;;;;;2.87;1.97;;;13.80;99.90;;;;;;5018464;28;20435;-68
2024/02/26 10:00:03;;;;;;;8.90;2.20;;;13.80;99.90;;;;;;5018281;28;20423;-67
2024/02/26 10:02:30;;;;;;;2.47;2.00;;;13.90;99.90;;;;;;5016023;28;20464;-67
2024/02/26 10:04:57;;;;;;;2.30;2.03;;;13.90;99.90;;;;;;5009992;28;20439;-67
2024/02/26 10:07:23;;;;;;;3.37;2.43;;;14.00;99.90;;;;;;5015829;28;20942;-67
2024/02/26 10:09:49;;;;;;;3.67;2.50;;;14.00;99.90;;;;;;5016553;28;20419;-68
2024/02/26 10:12:16;;;;;;;3.63;2.50;;;14.10;99.90;;;;;;5016574;28;20431;-67
2024/02/26 10:14:42;;;;;;;3.70;2.63;;;14.10;99.90;;;;;;5012828;28;20494;-69
2024/02/26 10:17:08;;;;;;;13.60;11.00;;;14.20;99.90;;;;;;5019635;28;20447;-67
2024/02/26 10:19:34;;;;;;;5.97;2.40;;;14.20;99.90;;;;;;5013354;28;20177;-67
2024/02/26 10:22:01;;;;;;;2.87;2.17;;;14.30;99.90;;;;;;5017853;28;20516;-67
2024/02/26 10:24:29;;;;;;;6.00;2.33;;;14.40;99.90;;;;;;5012827;28;20232;-67
2024/02/26 10:26:55;;;;;;;2.97;2.43;;;14.40;99.90;;;;;;5007924;28;20531;-68
2024/02/26 10:29:22;;;;;;;3.33;2.03;;;14.40;99.90;;;;;;5014898;28;20531;-67
2024/02/26 10:31:48;;;;;;;3.17;2.10;;;14.40;99.90;;;;;;5015428;28;20926;-68
2024/02/26 10:34:15;;;;;;;2.37;2.00;;;14.40;99.90;;;;;;5014309;28;20440;-68
2024/02/26 10:36:42;;;;;;;3.03;2.03;;;14.40;99.90;;;;;;5017482;28;20428;-67
2024/02/26 10:39:07;;;;;;;3.17;2.20;;;14.50;99.90;;;;;;5016239;28;20427;-67
2024/02/26 10:41:33;;;;;;;2.77;2.17;;;14.50;99.90;;;;;;5022122;28;20905;-67
2024/02/26 10:43:59;;;;;;;3.00;2.07;;;14.60;99.90;;;;;;5018141;28;20196;-68
2024/02/26 10:46:25;;;;;;;3.23;2.10;;;14.70;99.90;;;;;;5013183;28;20407;-67
2024/02/26 10:48:52;;;;;;;3.03;2.23;;;14.80;99.90;;;;;;5020497;28;20196;-66
2024/02/26 10:51:26;;;;;;;3.40;2.07;;;14.90;99.90;;;;;;5012977;28;20485;-68
2024/02/26 10:53:59;;;;;;;3.10;2.27;;;14.90;99.90;;;;;;5015376;28;20460;-68
2024/02/26 10:56:29;;;;;;;3.07;2.10;;;15.00;99.90;;;;;;5009519;28;20519;-68
2024/02/26 10:58:58;;;;;;;3.73;2.07;;;15.10;99.90;;;;;;5019480;28;20416;-68
2024/02/26 11:01:25;;;;;;;4.80;2.30;;;15.30;99.90;;;;;;5019093;28;20423;-66
2024/02/26 11:03:51;;;;;;;2.70;2.10;;;15.50;99.90;;;;;;5016060;28;20482;-67
2024/02/26 11:06:21;;;;;;;3.40;2.50;;;15.60;99.90;;;;;;5016060;28;20478;-67
2024/02/26 11:08:50;;;;;;;2.80;2.13;;;15.80;99.90;;;;;;5019230;28;21026;-67
2024/02/26 11:11:20;;;;;;;3.23;2.40;;;15.90;99.90;;;;;;5021264;28;20438;-68
2024/02/26 11:13:50;;;;;;;3.20;2.27;;;15.90;99.90;;;;;;5016250;28;20439;-67
2024/02/26 11:16:18;;;;;;;3.23;2.10;;;16.00;99.90;;;;;;5013379;28;21021;-67
2024/02/26 11:18:54;;;;;;;3.00;2.13;;;16.00;99.90;;;;;;5050240;28;20516;-68
2024/02/26 11:21:38;;;;;;;2.93;2.20;;;15.90;99.90;;;;;;5037566;28;20430;-68
2024/02/26 11:24:07;;;;;;;4.53;2.23;;;15.80;99.90;;;;;;5042460;28;20422;-68
2024/02/26 11:26:38;;;;;;;4.07;2.20;;;15.80;99.90;;;;;;5036859;28;20406;-68
2024/02/26 11:29:05;;;;;;;2.90;2.00;;;15.70;99.90;;;;;;5039228;28;20429;-68
2024/02/26 11:31:32;;;;;;;3.83;2.20;;;15.90;99.90;;;;;;5039003;28;20403;-68
2024/02/26 11:33:57;;;;;;;3.37;2.10;;;16.00;99.90;;;;;;5041128;28;20431;-68
2024/02/26 11:36:24;;;;;;;3.20;2.10;;;16.10;99.90;;;;;;5042911;28;20409;-68
2024/02/26 11:38:51;;;;;;;3.60;2.23;;;16.30;99.90;;;;;;5038368;28;20669;-68
2024/02/26 11:41:18;;;;;;;3.07;2.10;;;16.50;99.90;;;;;;5039359;28;20417;-68
2024/02/26 11:43:49;;;;;;;6.50;2.40;;;16.60;99.90;;;;;;5040557;28;20426;-68
2024/02/26 11:46:42;;;;;;;2.43;1.83;;;16.80;99.90;;;;;;5038250;28;20414;-68
2024/02/26 11:49:30;;;;;;;2.97;2.00;;;17.00;99.90;;;;;;5038879;28;20586;-67
2024/02/26 11:51:59;;;;;;;2.40;1.90;;;17.30;99.90;;;;;;5040372;28;20418;-69
2024/02/26 11:54:48;;;;;;;3.30;2.10;;;17.30;99.90;;;;;;5036895;28;20438;-69
2024/02/26 11:57:27;;;;;;;2.40;1.90;;;17.40;99.90;;;;;;5033129;28;20865;-69
2024/02/26 11:59:53;;;;;;;3.77;2.00;;;17.50;99.90;;;;;;5037685;28;20438;-68
2024/02/26 12:02:47;;;;;;;2.90;2.10;;;17.70;99.90;;;;;;5039671;28;20450;-69
2024/02/26 12:05:16;;;;;;;3.40;1.87;;;17.80;99.90;;;;;;5037300;28;20624;-66
2024/02/26 12:07:49;;;;;;;3.03;2.30;;;18.10;99.90;;;;;;5039475;28;20469;-66
2024/02/26 12:10:25;;;;;;;2.97;2.47;;;18.20;99.90;;;;;;5034165;28;20443;-68
2024/02/26 12:13:04;;;;;;;3.10;2.27;;;18.40;99.90;;;;;;5038093;28;20509;-67
2024/02/26 12:15:35;;;;;;;3.47;1.90;;;18.50;99.90;;;;;;5035559;28;20430;-67
2024/02/26 12:18:03;;;;;;;2.60;1.90;;;18.50;99.90;;;;;;5035954;28;21038;-68
2024/02/26 12:20:28;;;;;;;2.80;2.07;;;18.50;99.90;;;;;;5034588;28;20422;-68
2024/02/26 12:22:55;;;;;;;4.60;2.10;;;18.60;99.90;;;;;;5034075;28;20433;-68
2024/02/26 12:25:28;;;;;;;4.43;3.20;;;19.10;99.90;;;;;;5032665;28;20199;-68
2024/02/26 12:27:54;;;;;;;4.87;2.00;;;19.30;99.90;;;;;;5035699;28;20525;-68
2024/02/26 12:30:21;;;;;;;3.03;2.03;;;19.30;99.90;;;;;;5023931;28;20482;-68
2024/02/26 12:32:49;;;;;;;2.30;2.00;;;19.60;99.90;;;;;;5022999;28;20416;-68
2024/02/26 12:35:15;;;;;;;3.43;1.90;;;20.40;99.90;;;;;;5024521;28;20806;-68
2024/02/26 12:37:41;;;;;;;2.87;1.90;;;22.10;99.90;;;;;;5024352;28;20469;-68
2024/02/26 12:40:09;;;;;;;2.40;1.77;;;23.30;99.90;;;;;;5023219;28;20431;-68
2024/02/26 12:42:41;;;;;;;3.17;2.10;;;24.10;99.90;;;;;;5025016;28;20267;-68
2024/02/26 12:45:09;;;;;;;2.30;2.00;;;24.20;99.90;;;;;;5020865;28;20438;-68